Kezdőlap
METAR-TAF:

METAR-TAF

Repülőterek :

Lusaka, Zambia

Lusakai nemzetközi repülőtér

földrajzi szélesség: 15-19-51S, földrajzi hosszúság: 028-27-09E, magasság: 1152 m

Jelenlegi meteorológiai megfigyelések

A jelentés 2 órával és 55 perccel ezelõtt készült, 07:00 UTC
Keleti szél 13 kt
Hőmérséklet 24°C
Páratartalom 65%
Légköri nyomás 1019 hPa
Látótávolság 10 km, vagy több
Kevés felhő 3000 lábon
Kevés felhő 10000 lábon

METAR: FLKK 220700Z 09013KT 9999 FEW030 FEW100 24/17 Q1019

Idő: 11:55 (09:55 UTC)


TAF: hiányzik

Meteorológiai megfigyelések és előrejelzések több, mint 4000 repülőtéren (METAR és TAF jelentéseket).

A térképen piros és sárga pontok jelzik az elérhető meteorológiai állomásokat.

Mozgassa az egeret a pont fölött, hogy megjelenjen az állomás neve.

Azután kattintson az időjárási megfigyelések és előrejelzések megtekintéséhez.

A térkép megváltoztatása: kattintson a fekete keresztel jelölt zöld gombra ráközelítéshez, a vonallal jelölt zöld gombra távolításhoz, vagy a zöld nyilakra a szomszédos térképek eléréséhez.


METAR-TAF: